createdAt,value
2022-10-18T09:11:46.764Z,4128.00
2022-10-18T09:12:46.666Z,3740.00
2022-10-18T09:13:46.594Z,3484.00
2022-10-18T09:14:46.525Z,3444.00
2022-10-18T09:15:46.446Z,3780.00
2022-10-18T09:16:46.370Z,3644.00
2022-10-18T09:17:46.295Z,3476.00
2022-10-18T09:18:46.227Z,3476.00
2022-10-18T09:19:46.147Z,3928.00
2022-10-18T09:20:46.072Z,3856.00
2022-10-18T11:23:32.434Z,3732.00
2022-10-18T11:24:32.342Z,3948.00
2022-10-18T11:25:32.273Z,4652.00
2022-10-18T11:26:32.194Z,5084.00
2022-10-18T11:27:32.126Z,5464.00
2022-10-18T11:28:32.125Z,5892.00
2022-10-18T11:29:31.982Z,6376.00
2022-10-18T11:30:31.903Z,6244.00
2022-10-18T11:31:31.842Z,5780.00
2022-10-18T11:32:32.095Z,5388.00
2022-10-18T11:33:56.261Z,4764.00
2022-10-18T11:34:31.611Z,4108.00
2022-10-18T11:35:31.537Z,3400.00
2022-10-18T11:36:33.999Z,3436.00
2022-10-18T11:37:39.388Z,3796.00
2022-10-18T11:38:31.335Z,3572.00
2022-10-18T11:39:31.633Z,3012.00
2022-10-18T11:40:31.170Z,2356.00
2022-10-18T11:41:31.103Z,2120.00
2022-10-18T11:42:31.025Z,2056.00
2022-10-18T11:43:57.071Z,2120.00
2022-10-18T11:44:32.293Z,2304.00
2022-10-18T11:46:30.730Z,2224.00
2022-10-18T11:47:30.875Z,2188.00
2022-10-18T11:48:30.583Z,2232.00
2022-10-18T11:49:30.512Z,2088.00
2022-10-18T11:50:30.434Z,1892.00
2022-10-18T11:51:35.411Z,1780.00
2022-10-18T11:52:30.290Z,1636.00
2022-10-18T11:53:30.216Z,1612.00
2022-10-18T11:54:30.215Z,1656.00
2022-10-18T11:55:32.838Z,1648.00
2022-10-18T11:56:29.997Z,1680.00
2022-10-18T11:57:30.299Z,1700.00
2022-10-18T11:58:29.854Z,1756.00
2022-10-18T11:59:29.775Z,1892.00
2022-10-18T12:00:29.699Z,2076.00
2022-10-18T12:01:29.630Z,2136.00
2022-10-18T12:02:29.773Z,2136.00
2022-10-18T12:03:29.480Z,2104.00
2022-10-18T12:04:29.501Z,2052.00
2022-10-18T12:05:29.380Z,2000.00
2022-10-18T12:06:29.252Z,2072.00
2022-10-18T12:07:32.331Z,2244.00
2022-10-18T12:08:29.106Z,2408.00
2022-10-18T12:09:29.031Z,2504.00
2022-10-18T12:10:44.123Z,2620.00
2022-10-18T12:11:28.903Z,2688.00
2022-10-18T12:12:28.976Z,2680.00
2022-10-18T12:13:28.736Z,2728.00
2022-10-18T12:14:28.659Z,2808.00
2022-10-18T12:15:28.588Z,2956.00
2022-10-18T12:16:49.393Z,2832.00
2022-10-18T12:17:42.085Z,2592.00
2022-10-18T12:18:28.364Z,2464.00
2022-10-18T12:19:28.294Z,2272.00
2022-10-18T12:20:28.213Z,1992.00
2022-10-18T12:21:28.148Z,1868.00
2022-10-18T12:22:28.067Z,1948.00
2022-10-18T12:23:27.993Z,1872.00
2022-10-18T12:24:27.924Z,1844.00
2022-10-18T12:25:27.848Z,1952.00
2022-10-18T12:26:27.773Z,1920.00
2022-10-18T12:27:27.716Z,1824.00
2022-10-18T12:28:27.679Z,1804.00
2022-10-18T12:29:27.553Z,1868.00
2022-10-18T12:30:27.475Z,1784.00
2022-10-18T12:31:27.402Z,1492.00
2022-10-18T12:32:27.426Z,1408.00
2022-10-18T12:33:28.826Z,1436.00
2022-10-18T12:34:27.181Z,1476.00
2022-10-18T12:35:27.105Z,1580.00
2022-10-18T12:36:27.029Z,1776.00
2022-10-18T12:37:26.959Z,1992.00
2022-10-18T12:38:26.883Z,2120.00
2022-10-18T12:39:37.569Z,2332.00
2022-10-18T12:40:26.732Z,2352.00
2022-10-18T12:41:26.660Z,2196.00
2022-10-18T12:42:26.586Z,2188.00
2022-10-18T12:43:26.530Z,2128.00
2022-10-18T12:44:26.502Z,2152.00
2022-10-18T12:45:26.364Z,2480.00
2022-10-18T12:46:26.334Z,3148.00
2022-10-18T12:47:26.212Z,3864.00
2022-10-18T12:48:26.136Z,4236.00
2022-10-18T12:49:26.065Z,4536.00
2022-10-18T12:50:25.989Z,4820.00
2022-10-18T12:51:25.915Z,4760.00
2022-10-18T12:52:25.842Z,4096.00
2022-10-18T12:53:25.767Z,3488.00
2022-10-18T12:54:25.693Z,2988.00
2022-10-18T12:55:25.619Z,2680.00
2022-10-18T12:56:25.555Z,2736.00
2022-10-18T12:57:25.470Z,3076.00
2022-10-18T12:58:25.400Z,3580.00
2022-10-18T12:59:25.435Z,3972.00
2022-10-18T13:00:25.252Z,4036.00
2022-10-18T13:01:25.229Z,4000.00
2022-10-18T13:02:25.103Z,4336.00
2022-10-18T13:03:25.028Z,4884.00
2022-10-18T13:04:24.957Z,5992.00
2022-10-18T13:05:41.046Z,6576.00
2022-10-18T13:06:24.807Z,6840.00
2022-10-18T13:07:24.733Z,7452.00
2022-10-18T13:08:24.656Z,8464.00
2022-10-18T13:09:24.584Z,9500.00
2022-10-18T13:10:24.511Z,12376.00
2022-10-18T13:11:24.436Z,12204.00
2022-10-18T13:12:24.373Z,13672.00
2022-10-18T13:13:38.602Z,15936.00
2022-10-18T13:14:24.216Z,15776.00
2022-10-18T13:15:27.609Z,13996.00
2022-10-18T13:16:24.072Z,16256.00
2022-10-18T13:17:24.001Z,14868.00
2022-10-18T13:18:23.925Z,13532.00
2022-10-18T13:19:23.851Z,12080.00
2022-10-18T13:20:26.473Z,10744.00
2022-10-18T13:21:23.711Z,9208.00
2022-10-18T13:22:23.634Z,7504.00
2022-10-18T13:23:23.566Z,6088.00
2022-10-18T13:24:27.325Z,4620.00
2022-10-18T13:25:23.420Z,4184.00
2022-10-18T13:26:23.347Z,4052.00
2022-10-18T13:27:35.611Z,3944.00
2022-10-18T13:28:23.202Z,4424.00
2022-10-18T13:29:23.132Z,5432.00
2022-10-18T13:30:23.062Z,6184.00
2022-10-18T13:31:23.006Z,7080.00
2022-10-18T13:32:22.915Z,7412.00
2022-10-18T13:33:22.847Z,7328.00
2022-10-18T13:34:22.769Z,7300.00
2022-10-18T13:35:22.700Z,6544.00
2022-10-18T13:36:23.506Z,5452.00
2022-10-18T13:37:22.554Z,4828.00
2022-10-18T13:38:22.479Z,5332.00
2022-10-18T13:39:22.409Z,6400.00
2022-10-18T13:40:22.337Z,7540.00
2022-10-18T13:42:22.192Z,8512.00
2022-10-18T13:43:22.119Z,8548.00
2022-10-18T13:44:22.047Z,8276.00
2022-10-18T13:45:21.975Z,7836.00
2022-10-18T13:46:21.902Z,7760.00
2022-10-18T13:47:21.900Z,8204.00
2022-10-18T13:48:21.765Z,8616.00
2022-10-18T13:49:21.686Z,9396.00
2022-10-18T13:50:21.664Z,8488.00
2022-10-18T13:51:21.544Z,8260.00
2022-10-18T13:52:21.469Z,7516.00
2022-10-18T13:54:23.900Z,8496.00
2022-10-18T13:55:23.839Z,9504.00
2022-10-18T13:56:23.751Z,10728.00
2022-10-18T13:57:23.685Z,9720.00
2022-10-18T13:58:23.614Z,7888.00
2022-10-18T13:59:23.593Z,6104.00
2022-10-18T14:00:24.476Z,5852.00
2022-10-18T14:01:23.429Z,6036.00
2022-10-18T14:02:43.030Z,6244.00
2022-10-18T14:03:51.351Z,6180.00
2022-10-18T14:04:23.176Z,6020.00
2022-10-18T14:05:25.625Z,5772.00
2022-10-18T14:06:23.033Z,5816.00
2022-10-18T14:07:22.959Z,6180.00
2022-10-18T14:08:22.930Z,6628.00
2022-10-18T14:09:40.377Z,6944.00
2022-10-18T14:10:33.334Z,7068.00
2022-10-18T14:11:22.670Z,6520.00
2022-10-18T14:12:22.609Z,5492.00
2022-10-18T14:13:22.527Z,5112.00
2022-10-18T14:14:22.456Z,5284.00
2022-10-18T14:15:22.481Z,5804.00
2022-10-18T14:18:39.769Z,4964.00
2022-10-18T14:19:39.681Z,4352.00
2022-10-18T14:20:49.465Z,3920.00
2022-10-18T14:21:39.535Z,3848.00
2022-10-18T14:22:39.459Z,3732.00
2022-10-18T14:23:39.389Z,3552.00
2022-10-18T14:24:39.317Z,3344.00
2022-10-18T14:25:39.248Z,3000.00
2022-10-18T14:29:00.276Z,1848.00
2022-10-18T14:29:44.219Z,1620.00
2022-10-18T14:30:44.029Z,1448.00
2022-10-18T14:31:44.004Z,1328.00
2022-10-18T14:32:43.884Z,1236.00
2022-10-18T14:33:43.827Z,1156.00
2022-10-18T14:34:43.735Z,1100.00
2022-10-18T14:35:43.748Z,1048.00
2022-10-18T14:36:43.591Z,1008.00
2022-10-18T14:37:43.521Z,972.00
2022-10-18T14:38:43.443Z,900.00
2022-10-18T14:39:43.373Z,848.00
2022-10-18T14:40:43.297Z,832.00
2022-10-18T14:41:43.226Z,848.00
2022-10-18T14:43:33.261Z,916.00
2022-10-18T14:44:30.565Z,948.00
2022-10-18T14:47:40.546Z,872.00
2022-10-18T14:48:40.470Z,836.00
2022-10-18T14:49:40.435Z,828.00
2022-10-18T14:50:42.946Z,840.00
2022-10-18T14:52:47.757Z,896.00
2022-10-18T14:53:47.680Z,912.00
2022-10-18T14:54:47.607Z,916.00
2022-10-18T14:55:47.531Z,924.00
2022-10-18T14:56:47.460Z,948.00
2022-10-18T14:57:47.386Z,976.00
2022-10-18T14:58:47.310Z,972.00
2022-10-18T14:59:47.238Z,956.00
2022-10-18T15:00:48.533Z,920.00
2022-10-18T15:01:47.091Z,904.00
2022-10-18T15:02:47.019Z,904.00
2022-10-18T15:03:46.945Z,908.00
2022-10-18T15:04:46.888Z,936.00
2022-10-18T15:05:46.792Z,928.00
2022-10-18T15:06:46.721Z,832.00
2022-10-18T15:07:46.642Z,748.00
2022-10-18T15:08:46.571Z,696.00
2022-10-18T15:09:46.496Z,644.00
2022-10-18T15:10:46.422Z,612.00
2022-10-18T15:11:46.348Z,596.00
2022-10-18T15:13:08.263Z,592.00
2022-10-18T15:13:46.248Z,604.00
2022-10-18T15:14:46.129Z,600.00
2022-10-18T15:15:46.052Z,584.00
2022-10-18T15:16:45.978Z,556.00
2022-10-18T15:17:45.903Z,516.00
2022-10-18T15:18:45.828Z,484.00
2022-10-18T15:19:45.754Z,460.00
2022-10-18T15:20:45.699Z,448.00
2022-10-18T15:21:45.605Z,444.00
2022-10-18T15:22:45.925Z,452.00
2022-10-18T15:23:45.455Z,452.00
2022-10-18T15:24:45.386Z,452.00
2022-10-18T15:25:45.308Z,456.00
2022-10-18T15:26:45.235Z,464.00
2022-10-18T15:27:45.453Z,476.00
2022-10-18T15:28:45.124Z,488.00
2022-10-18T15:29:45.012Z,492.00
2022-10-18T15:30:44.937Z,488.00
2022-10-18T15:31:44.863Z,488.00
2022-10-18T15:32:44.790Z,500.00
2022-10-18T15:33:44.712Z,520.00
2022-10-18T15:34:44.640Z,536.00
2022-10-18T15:35:44.564Z,552.00
2022-10-18T15:36:44.550Z,572.00
2022-10-18T15:37:44.415Z,580.00
2022-10-18T15:38:47.561Z,580.00
2022-10-18T15:39:44.268Z,552.00
2022-10-18T15:40:44.194Z,520.00
2022-10-18T15:41:44.122Z,484.00
2022-10-18T15:42:44.045Z,464.00
2022-10-18T15:43:43.970Z,464.00
2022-10-18T15:44:43.896Z,480.00
2022-10-18T15:45:43.872Z,508.00
2022-10-18T15:46:43.746Z,540.00
2022-10-18T15:47:43.670Z,576.00
2022-10-18T15:48:43.595Z,604.00
2022-10-18T15:49:43.523Z,600.00
2022-10-18T15:50:43.449Z,584.00
2022-10-18T15:51:43.373Z,532.00
2022-10-18T15:52:43.320Z,472.00
2022-10-18T15:53:43.222Z,400.00
2022-10-18T15:54:43.197Z,344.00
2022-10-18T15:55:43.078Z,320.00
2022-10-18T15:56:43.000Z,312.00
2022-10-18T15:57:42.927Z,332.00
2022-10-18T15:58:42.852Z,344.00
2022-10-18T15:59:42.776Z,356.00
2022-10-18T16:00:42.703Z,368.00
2022-10-18T16:01:42.702Z,364.00
2022-10-18T16:02:42.555Z,356.00
2022-10-18T16:03:42.506Z,344.00
2022-10-18T16:04:42.406Z,336.00
2022-10-18T16:05:42.328Z,344.00
2022-10-18T16:06:42.257Z,368.00
2022-10-18T16:07:42.179Z,376.00
2022-10-18T16:08:42.124Z,376.00
2022-10-18T16:09:42.030Z,360.00
2022-10-18T16:10:41.956Z,336.00
2022-10-18T16:11:41.881Z,336.00
2022-10-18T16:12:41.915Z,348.00
2022-10-18T16:13:41.733Z,336.00
2022-10-18T16:14:41.658Z,320.00
2022-10-18T16:15:41.580Z,300.00
2022-10-18T16:16:41.517Z,276.00
2022-10-18T16:17:41.432Z,260.00
2022-10-18T16:18:41.358Z,244.00
2022-10-18T16:19:41.283Z,232.00
2022-10-18T16:20:41.460Z,220.00
2022-10-18T16:21:41.231Z,208.00
2022-10-18T16:22:41.444Z,200.00
2022-10-18T16:24:43.513Z,176.00
2022-10-18T16:25:43.404Z,164.00
2022-10-18T16:26:43.330Z,148.00
2022-10-18T16:27:43.268Z,140.00
2022-10-18T16:28:43.250Z,124.00
2022-10-18T16:29:43.104Z,116.00
2022-10-18T16:30:43.032Z,100.00
2022-10-18T16:31:42.978Z,92.00
2022-10-18T16:32:42.879Z,84.00
2022-10-18T16:33:42.808Z,68.00
2022-10-18T16:34:42.735Z,60.00
2022-10-18T16:35:42.652Z,44.00
2022-10-18T16:36:42.579Z,40.00
2022-10-18T16:37:42.502Z,36.00
2022-10-18T16:38:42.428Z,28.00
2022-10-18T16:39:42.351Z,28.00
2022-10-18T16:40:42.296Z,28.00
2022-10-18T16:41:42.207Z,24.00
2022-10-18T16:42:42.126Z,20.00
2022-10-18T16:43:42.054Z,16.00
2022-10-18T16:44:41.977Z,16.00
2022-10-18T16:45:41.900Z,12.00
2022-10-18T16:46:42.046Z,8.00
2022-10-18T16:47:41.763Z,8.00
2022-10-18T16:48:41.689Z,4.00
2022-10-18T16:49:41.605Z,4.00
2022-10-18T16:50:41.526Z,4.00
2022-10-18T16:51:41.448Z,4.00
2022-10-18T16:52:41.374Z,4.00
2022-10-18T16:53:41.300Z,4.00
2022-10-18T16:54:41.221Z,4.00
2022-10-18T16:55:41.148Z,4.00
2022-10-18T16:56:41.159Z,0.00
2022-10-18T16:57:40.995Z,0.00
2022-10-18T16:58:40.922Z,0.00
2022-10-18T16:59:40.844Z,0.00
2022-10-18T17:00:40.783Z,0.00
2022-10-18T17:01:40.780Z,0.00
2022-10-18T17:02:40.672Z,0.00
2022-10-18T17:03:40.790Z,0.00
2022-10-18T17:04:40.469Z,0.00
2022-10-18T17:05:40.390Z,0.00
2022-10-18T17:06:40.316Z,0.00
2022-10-18T17:07:40.241Z,0.00
2022-10-18T17:08:40.315Z,0.00
2022-10-18T17:09:40.087Z,0.00
2022-10-18T17:10:40.022Z,0.00
2022-10-18T17:11:39.947Z,0.00
2022-10-18T17:12:39.883Z,0.00
2022-10-18T17:13:39.783Z,0.00
2022-10-18T17:14:39.709Z,0.00
2022-10-18T17:15:39.633Z,0.00
2022-10-18T17:16:39.557Z,0.00
2022-10-18T17:17:39.479Z,0.00
2022-10-18T17:18:39.414Z,0.00
2022-10-18T17:19:39.327Z,0.00
2022-10-18T17:20:39.258Z,0.00
2022-10-18T17:21:39.187Z,0.00
2022-10-18T17:22:39.110Z,0.00
2022-10-18T17:23:39.025Z,0.00
2022-10-18T17:24:38.954Z,0.00
2022-10-18T17:25:46.434Z,0.00
2022-10-18T17:26:38.798Z,0.00
2022-10-18T17:27:38.723Z,0.00
2022-10-18T17:28:38.771Z,0.00
2022-10-18T17:29:38.567Z,0.00
2022-10-18T17:30:38.495Z,0.00
2022-10-18T17:31:38.430Z,0.00
2022-10-18T17:32:38.343Z,0.00
2022-10-18T17:33:38.266Z,0.00
2022-10-18T17:34:38.266Z,0.00
2022-10-18T17:35:38.164Z,0.00
2022-10-18T17:36:38.039Z,0.00
2022-10-18T17:37:41.506Z,0.00
2022-10-18T17:38:37.886Z,0.00
2022-10-18T17:39:37.810Z,0.00
2022-10-18T17:40:37.736Z,0.00
2022-10-18T17:41:37.664Z,0.00
2022-10-18T17:42:37.581Z,0.00
2022-10-18T17:43:37.565Z,0.00
2022-10-18T17:44:37.449Z,0.00
2022-10-18T17:45:37.356Z,0.00
2022-10-18T17:46:37.280Z,0.00
2022-10-18T17:47:37.202Z,0.00
2022-10-18T17:48:37.126Z,0.00
2022-10-18T17:49:37.253Z,0.00
2022-10-18T17:50:36.975Z,0.00
2022-10-18T17:51:36.898Z,0.00
2022-10-18T17:52:36.864Z,0.00
2022-10-18T17:53:36.744Z,0.00
2022-10-18T17:54:36.671Z,0.00
2022-10-18T17:55:36.595Z,0.00
2022-10-18T17:56:36.516Z,0.00
2022-10-18T17:57:36.440Z,0.00
2022-10-18T17:58:36.412Z,0.00
2022-10-18T17:59:36.286Z,0.00
2022-10-18T18:00:36.236Z,0.00
2022-10-18T18:01:36.223Z,0.00
2022-10-18T18:02:38.365Z,0.00
2022-10-18T18:03:36.131Z,0.00
2022-10-18T18:04:35.906Z,0.00
2022-10-18T18:05:35.830Z,0.00
2022-10-18T18:06:35.756Z,0.00
2022-10-18T18:07:35.677Z,0.00
2022-10-18T18:08:35.601Z,0.00
2022-10-18T18:09:35.523Z,0.00
2022-10-18T18:10:35.446Z,0.00
2022-10-18T18:11:35.369Z,0.00
2022-10-18T18:12:35.509Z,0.00
2022-10-18T18:13:35.216Z,0.00
2022-10-18T18:14:35.145Z,0.00
2022-10-18T18:15:35.063Z,0.00
2022-10-18T18:16:35.025Z,0.00
2022-10-18T18:17:56.079Z,0.00
2022-10-18T18:18:34.856Z,0.00
2022-10-18T18:19:34.834Z,0.00
2022-10-18T18:20:34.759Z,0.00
2022-10-18T18:21:34.621Z,0.00
2022-10-18T18:22:36.859Z,0.00
2022-10-18T18:23:34.474Z,0.00
2022-10-18T18:24:34.380Z,0.00
2022-10-18T18:25:34.307Z,0.00
2022-10-18T18:26:34.222Z,0.00
2022-10-18T18:27:34.307Z,0.00
2022-10-18T18:28:34.114Z,0.00
2022-10-18T18:29:33.990Z,0.00
2022-10-18T18:30:33.913Z,0.00
2022-10-18T18:31:38.644Z,0.00
2022-10-18T18:32:34.079Z,0.00
2022-10-18T18:33:33.684Z,0.00
2022-10-18T18:34:33.606Z,0.00
2022-10-18T18:35:33.629Z,0.00
2022-10-18T18:36:33.452Z,0.00
2022-10-18T18:37:33.374Z,0.00
2022-10-18T18:38:33.299Z,0.00
2022-10-18T18:39:33.232Z,0.00
2022-10-18T18:40:33.146Z,0.00
2022-10-18T18:41:33.065Z,0.00
2022-10-18T18:42:33.336Z,0.00
2022-10-18T18:43:32.919Z,0.00
2022-10-18T18:44:32.836Z,0.00
2022-10-18T18:45:32.757Z,0.00
2022-10-18T18:46:32.685Z,0.00
2022-10-18T18:47:32.607Z,0.00
2022-10-18T18:48:32.553Z,0.00
2022-10-18T18:49:32.451Z,0.00
2022-10-18T18:50:32.376Z,0.00
2022-10-18T18:51:32.297Z,0.00
2022-10-18T18:52:32.606Z,0.00
2022-10-18T18:53:32.141Z,0.00
2022-10-18T18:54:32.066Z,0.00
2022-10-18T18:55:31.989Z,0.00
2022-10-18T18:56:31.911Z,0.00
2022-10-18T18:57:32.102Z,0.00
2022-10-18T18:58:31.760Z,0.00
2022-10-18T18:59:31.682Z,0.00
2022-10-18T19:00:31.608Z,0.00
2022-10-18T19:03:09.295Z,0.00
2022-10-18T20:01:35.942Z,0.00
2022-10-18T20:02:36.009Z,0.00
2022-10-18T20:03:35.692Z,0.00
2022-10-18T20:04:35.608Z,0.00
2022-10-18T20:05:35.532Z,0.00
2022-10-18T21:42:46.516Z,0.00
2022-10-18T21:43:46.412Z,0.00
2022-10-18T21:44:46.333Z,0.00
2022-10-18T21:45:46.256Z,0.00
2022-10-18T21:46:46.179Z,0.00
2022-10-18T21:47:46.097Z,0.00
2022-10-18T21:48:46.022Z,0.00
2022-10-18T21:49:45.941Z,0.00
2022-10-18T21:50:45.862Z,0.00
2022-10-18T21:51:45.781Z,0.00
2022-10-18T21:52:45.706Z,0.00
2022-10-18T21:53:45.627Z,0.00
2022-10-18T21:54:45.547Z,0.00
2022-10-18T21:55:45.476Z,0.00
2022-10-18T21:56:45.391Z,0.00
2022-10-18T21:57:45.312Z,0.00
2022-10-18T21:58:45.252Z,0.00
2022-10-18T21:59:45.169Z,0.00
2022-10-18T22:00:45.097Z,0.00
2022-10-18T22:01:44.997Z,0.00
2022-10-18T22:02:44.952Z,0.00
2022-10-18T22:03:44.839Z,0.00
2022-10-18T22:04:44.764Z,0.00
2022-10-18T22:05:47.706Z,0.00
2022-10-18T22:06:44.607Z,0.00
2022-10-18T22:07:44.526Z,0.00
2022-10-18T22:08:44.447Z,0.00
2022-10-18T22:09:47.192Z,0.00
2022-10-18T22:10:44.291Z,0.00
2022-10-18T22:11:44.209Z,0.00
2022-10-18T22:12:44.134Z,0.00
2022-10-18T22:48:54.637Z,0.00
2022-10-18T22:49:54.541Z,0.00
2022-10-18T22:50:54.465Z,0.00
2022-10-18T22:51:54.384Z,0.00
2022-10-18T22:52:54.736Z,0.00
2022-10-18T22:53:54.236Z,0.00
2022-10-18T22:55:36.633Z,0.00
2022-10-18T22:56:39.983Z,0.00
2022-10-18T22:57:36.476Z,0.00
2022-10-18T22:58:36.397Z,0.00
2022-10-18T22:59:36.319Z,0.00
2022-10-18T23:01:36.164Z,0.00
2022-10-18T23:02:36.286Z,0.00
2022-10-18T23:03:36.008Z,0.00
2022-10-18T23:04:35.996Z,0.00
2022-10-18T23:05:35.851Z,0.00
2022-10-18T23:06:35.770Z,0.00
